Time,TemperatureF,DewpointF,PressureIn,WindDirection,WindDirectionDegrees,WindSpeedMPH,WindSpeedGustMPH,Humidity,HourlyPrecipIn,Conditions,Clouds,dailyrainin,SoftwareType,DateUTC
2013-08-04 00:02:00,60.8,58.5,30.06,ESE,112,20.1,20.7,92,0.18, +RA,,0.01,WeatherDisplay:10.37,2013-08-04 06:02:00,
2013-08-04 00:07:00,60.4,58.4,30.06,SSE,158,20.2,27.6,93,0.17, +RA,,0.01,WeatherDisplay:10.37,2013-08-04 06:07:00,
2013-08-04 00:12:00,60.4,58.4,30.06,SE,135,17.9,25.3,93,0.16, +RA,,0.01,WeatherDisplay:10.37,2013-08-04 06:12:00,
2013-08-04 00:17:00,60.6,58.6,30.04,ESE,112,15.8,25.3,93,0.15, +RA,,0.02,WeatherDisplay:10.37,2013-08-04 06:17:00,
2013-08-04 00:22:00,60.8,58.8,30.04,ESE,112,13.8,16.1,93,0.14, +RA,,0.02,WeatherDisplay:10.37,2013-08-04 06:22:00,
2013-08-04 00:27:00,60.8,58.8,30.04,ESE,112,11.9,16.1,93,0.13, +RA,,0.02,WeatherDisplay:10.37,2013-08-04 06:27:00,
2013-08-04 00:32:00,60.8,58.8,30.04,ESE,112,21.1,24.2,93,0.11,OVC,,0.02,WeatherDisplay:10.37,2013-08-04 06:32:00,
2013-08-04 00:37:00,60.8,58.8,30.03,SSE,158,18.2,20.7,93,0.09,OVC,,0.02,WeatherDisplay:10.37,2013-08-04 06:37:00,
2013-08-04 00:42:00,60.8,58.5,30.03,ESE,112,17.0,18.6,92,0.07,OVC,,0.02,WeatherDisplay:10.37,2013-08-04 06:42:00,
2013-08-04 00:47:00,60.8,58.5,30.03,SE,135,12.4,16.1,92,0.05,OVC,,0.02,WeatherDisplay:10.37,2013-08-04 06:47:00,
2013-08-04 00:52:00,60.8,58.5,30.04,SE,135,16.0,16.1,92,0.03,OVC,,0.02,WeatherDisplay:10.37,2013-08-04 06:52:00,
2013-08-04 00:57:00,60.6,57.3,30.04,ESE,112,15.0,17.3,89,0.02,OVC,,0.02,WeatherDisplay:10.37,2013-08-04 06:57:00,
2013-08-04 01:02:00,61.0,57.7,30.02,ESE,112,13.7,17.1,89,0.01,OVC,,0.02,WeatherDisplay:10.37,2013-08-04 07:02:00,
2013-08-04 01:07:00,61.3,58.0,30.02,SE,135,12.4,15.0,89,0.01,OVC,,0.02,WeatherDisplay:10.37,2013-08-04 07:07:00,
2013-08-04 01:12:00,61.3,57.7,30.02,ESE,112,11.2,15.0,88,0.01,CLR,,0.02,WeatherDisplay:10.37,2013-08-04 07:12:00,
2013-08-04 01:17:00,61.5,57.6,30.02,SE,135,12.5,17.3,87,0.00,CLR,,0.02,WeatherDisplay:10.37,2013-08-04 07:17:00,
2013-08-04 01:22:00,61.5,57.6,30.02,SE,135,13.6,18.4,87,0.00,CLR,,0.02,WeatherDisplay:10.37,2013-08-04 07:22:00,
2013-08-04 01:27:00,61.5,57.6,30.01,ESE,112,15.1,17.3,87,0.00,CLR,,0.02,WeatherDisplay:10.37,2013-08-04 07:27:00,
2013-08-04 01:32:00,61.7,57.8,30.01,SSE,158,12.8,19.6,87,0.00,CLR,,0.02,WeatherDisplay:10.37,2013-08-04 07:32:00,
2013-08-04 01:37:00,61.7,57.5,30.01,East,90,14.1,17.3,86,0.00,CLR,,0.02,WeatherDisplay:10.37,2013-08-04 07:37:00,
2013-08-04 01:42:00,61.7,57.1,30.01,ESE,112,18.8,25.3,85,0.00,CLR,,0.02,WeatherDisplay:10.37,2013-08-04 07:42:00,
2013-08-04 01:48:00,61.7,57.1,30.01,SE,135,13.0,13.0,85,0.00,CLR,,0.02,WeatherDisplay:10.37,2013-08-04 07:48:00,
2013-08-04 01:53:00,61.7,57.1,30.01,SSE,158,18.8,20.7,85,0.00,CLR,,0.02,WeatherDisplay:10.37,2013-08-04 07:53:00,
2013-08-04 01:58:00,61.5,56.9,30.01,ESE,112,13.7,16.1,85,0.00,CLR,,0.02,WeatherDisplay:10.37,2013-08-04 07:58:00,
2013-08-04 02:02:00,61.5,56.9,30.01,ESE,112,16.0,16.1,85,0.00,CLR,,0.02,WeatherDisplay:10.37,2013-08-04 08:02:00,
2013-08-04 02:08:00,61.7,56.8,30.01,SE,135,12.2,16.1,84,0.00,CLR,,0.02,WeatherDisplay:10.37,2013-08-04 08:08:00,
2013-08-04 02:13:00,61.5,56.6,30.01,ESE,112,8.6,10.9,84,0.00,CLR,,0.02,WeatherDisplay:10.37,2013-08-04 08:13:00,
2013-08-04 02:18:00,61.7,56.8,30.01,ESE,112,8.0,12.7,84,0.00,CLR,,0.02,WeatherDisplay:10.37,2013-08-04 08:18:00,
2013-08-04 02:22:00,61.7,56.5,30.01,ESE,112,13.8,16.1,83,0.00,CLR,,0.02,WeatherDisplay:10.37,2013-08-04 08:22:00,
2013-08-04 02:28:00,61.9,56.7,30.00,SE,135,12.9,16.1,83,0.00,CLR,,0.02,WeatherDisplay:10.37,2013-08-04 08:28:00,
2013-08-04 02:32:00,61.9,56.7,30.00,ESE,112,12.2,15.0,83,0.00,CLR,,0.02,WeatherDisplay:10.37,2013-08-04 08:32:00,
2013-08-04 02:38:00,61.7,56.5,30.00,ESE,112,11.3,13.8,83,0.00,CLR,,0.02,WeatherDisplay:10.37,2013-08-04 08:38:00,
2013-08-04 02:42:00,61.5,56.3,30.00,ESE,112,10.6,14.5,83,0.00,CLR,,0.02,WeatherDisplay:10.37,2013-08-04 08:42:00,
2013-08-04 02:48:00,61.3,56.1,30.00,NE,45,8.5,10.4,83,0.00,CLR,,0.02,WeatherDisplay:10.37,2013-08-04 08:48:00,
2013-08-04 02:53:00,61.3,56.1,30.00,ESE,112,11.5,13.8,83,0.00,CLR,,0.02,WeatherDisplay:10.37,2013-08-04 08:53:00,
2013-08-04 02:58:00,61.3,56.4,30.00,ESE,112,8.0,10.4,84,0.00,CLR,,0.02,WeatherDisplay:10.37,2013-08-04 08:58:00,
2013-08-04 03:03:00,61.2,56.3,30.00,ESE,112,9.1,10.4,84,0.00,CLR,,0.02,WeatherDisplay:10.37,2013-08-04 09:03:00,
2013-08-04 03:08:00,61.0,56.1,30.00,ESE,112,6.6,8.1,84,0.00,CLR,,0.02,WeatherDisplay:10.37,2013-08-04 09:08:00,
2013-08-04 03:13:00,61.0,56.1,30.00,ESE,112,5.3,8.1,84,0.00,CLR,,0.02,WeatherDisplay:10.37,2013-08-04 09:13:00,
2013-08-04 03:18:00,60.8,55.9,30.00,SSE,158,6.8,10.4,84,0.00,CLR,,0.02,WeatherDisplay:10.37,2013-08-04 09:18:00,
2013-08-04 03:23:00,60.8,55.9,30.00,SE,135,6.2,10.4,84,0.00,CLR,,0.02,WeatherDisplay:10.37,2013-08-04 09:23:00,
2013-08-04 03:28:00,60.8,55.9,30.00,ESE,112,7.9,8.1,84,0.00,CLR,,0.02,WeatherDisplay:10.37,2013-08-04 09:28:00,
2013-08-04 03:33:00,60.4,55.9,30.00,ESE,112,6.1,6.9,85,0.00,CLR,,0.02,WeatherDisplay:10.37,2013-08-04 09:33:00,
2013-08-04 03:38:00,60.6,56.1,30.00,SE,135,7.6,9.2,85,0.00,CLR,,0.02,WeatherDisplay:10.37,2013-08-04 09:38:00,
2013-08-04 03:43:00,60.6,55.7,30.00,SSE,158,7.1,8.1,84,0.00,CLR,,0.02,WeatherDisplay:10.37,2013-08-04 09:43:00,
2013-08-04 03:48:00,60.4,55.5,30.00,ESE,112,6.7,6.9,84,0.00,CLR,,0.02,WeatherDisplay:10.37,2013-08-04 09:48:00,
2013-08-04 03:53:00,60.3,55.4,30.00,SSE,158,7.5,8.1,84,0.00,CLR,,0.02,WeatherDisplay:10.37,2013-08-04 09:53:00,
2013-08-04 03:58:00,60.3,55.4,30.00,ESE,112,7.3,8.1,84,0.00,CLR,,0.02,WeatherDisplay:10.37,2013-08-04 09:58:00,
2013-08-04 04:03:00,60.1,55.2,30.00,SSW,202,7.3,9.2,84,0.00,CLR,,0.02,WeatherDisplay:10.37,2013-08-04 10:03:00,
2013-08-04 04:08:00,60.1,55.2,30.00,SE,135,9.3,11.5,84,0.00,CLR,,0.02,WeatherDisplay:10.37,2013-08-04 10:08:00,
2013-08-04 04:13:00,60.1,55.2,30.00,ESE,112,7.8,8.1,84,0.00,CLR,,0.02,WeatherDisplay:10.37,2013-08-04 10:13:00,
2013-08-04 04:18:00,59.9,55.1,29.99,SE,135,10.2,10.2,84,0.00,CLR,,0.02,WeatherDisplay:10.37,2013-08-04 10:18:00,
2013-08-04 04:23:00,59.7,54.9,29.99,SE,135,7.3,7.3,84,0.00,CLR,,0.02,WeatherDisplay:10.37,2013-08-04 10:23:00,
2013-08-04 04:28:00,59.5,55.0,30.00,SSE,158,8.0,8.8,85,0.00,CLR,,0.02,WeatherDisplay:10.37,2013-08-04 10:28:00,
2013-08-04 04:33:00,59.5,55.0,30.00,ESE,112,5.9,9.2,85,0.00,CLR,,0.02,WeatherDisplay:10.37,2013-08-04 10:33:00,
2013-08-04 04:38:00,59.4,54.9,30.00,SE,135,5.2,9.2,85,0.00,CLR,,0.02,WeatherDisplay:10.37,2013-08-04 10:38:00,
2013-08-04 04:43:00,59.2,54.7,30.00,SE,135,6.5,6.9,85,0.00,CLR,,0.02,WeatherDisplay:10.37,2013-08-04 10:43:00,
2013-08-04 04:48:00,59.2,55.0,30.00,SE,135,5.3,7.8,86,0.00,CLR,,0.02,WeatherDisplay:10.37,2013-08-04 10:48:00,
2013-08-04 04:53:00,59.2,55.0,30.00,ENE,68,3.1,6.9,86,0.00,CLR,,0.02,WeatherDisplay:10.37,2013-08-04 10:53:00,
2013-08-04 04:58:00,58.8,54.9,30.00,NNE,22,0.0,1.1,87,0.00,CLR,,0.02,WeatherDisplay:10.37,2013-08-04 10:58:00,
2013-08-04 05:03:00,58.5,54.6,30.00,ESE,112,2.1,3.5,87,0.00,CLR,,0.02,WeatherDisplay:10.37,2013-08-04 11:03:00,
2013-08-04 05:08:00,58.3,54.8,30.00,SE,135,3.7,4.6,88,0.00,CLR,,0.02,WeatherDisplay:10.37,2013-08-04 11:08:00,
2013-08-04 05:09:00,58.3,54.8,30.00,SE,135,3.5,4.6,88,0.00,CLR,,0.02,WeatherDisplay:10.37,2013-08-04 11:09:00,
2013-08-04 05:14:00,58.3,54.8,30.00,SSE,158,3.2,5.3,88,0.00,CLR,,0.02,WeatherDisplay:10.37,2013-08-04 11:14:00,
2013-08-04 05:19:00,58.3,54.8,30.00,South,180,2.4,2.4,88,0.00,CLR,,0.02,WeatherDisplay:10.37,2013-08-04 11:19:00,
2013-08-04 05:23:00,58.1,54.6,30.00,SSE,158,4.4,4.6,88,0.00,CLR,,0.02,WeatherDisplay:10.37,2013-08-04 11:23:00,
2013-08-04 05:29:00,58.1,54.6,30.00,ESE,112,4.1,5.3,88,0.00,CLR,,0.02,WeatherDisplay:10.37,2013-08-04 11:29:00,
2013-08-04 05:34:00,58.1,54.6,30.00,SSE,158,2.7,3.5,88,0.00,CLR,,0.02,WeatherDisplay:10.37,2013-08-04 11:34:00,
2013-08-04 05:39:00,58.1,54.6,30.00,ESE,112,2.8,4.7,88,0.00,CLR,,0.02,WeatherDisplay:10.37,2013-08-04 11:39:00,
2013-08-04 05:43:00,57.9,54.7,30.00,SE,135,4.3,4.6,89,0.00,CLR,,0.02,WeatherDisplay:10.37,2013-08-04 11:43:00,
2013-08-04 05:49:00,57.7,54.5,30.00,SE,135,2.7,3.5,89,0.00,CLR,,0.02,WeatherDisplay:10.37,2013-08-04 11:49:00,
2013-08-04 05:54:00,57.6,54.4,30.00,ESE,112,1.3,2.3,89,0.00,CLR,,0.02,WeatherDisplay:10.37,2013-08-04 11:54:00,
2013-08-04 05:59:00,57.6,54.4,30.00,ESE,112,2.6,3.5,89,0.00,CLR,,0.02,WeatherDisplay:10.37,2013-08-04 11:59:00,
2013-08-04 06:04:00,57.7,54.5,30.00,SE,135,3.2,4.2,89,0.00,CLR,,0.02,WeatherDisplay:10.37,2013-08-04 12:04:00,
2013-08-04 06:09:00,57.9,54.7,30.00,SSE,158,3.2,4.6,89,0.00,CLR,,0.02,WeatherDisplay:10.37,2013-08-04 12:09:00,
2013-08-04 06:14:00,58.1,54.9,30.01,SE,135,3.0,4.6,89,0.00,CLR,,0.02,WeatherDisplay:10.37,2013-08-04 12:14:00,
2013-08-04 06:19:00,58.1,54.9,30.01,SSE,158,4.3,4.6,89,0.00,CLR,,0.02,WeatherDisplay:10.37,2013-08-04 12:19:00,
2013-08-04 06:24:00,58.5,55.0,30.01,South,180,5.1,6.9,88,0.00,CLR,,0.02,WeatherDisplay:10.37,2013-08-04 12:24:00,
2013-08-04 06:29:00,58.6,55.1,30.00,South,180,5.0,5.8,88,0.00,CLR,,0.02,WeatherDisplay:10.37,2013-08-04 12:29:00,
2013-08-04 06:34:00,58.8,55.3,30.00,SE,135,7.4,9.2,88,0.00,CLR,,0.02,WeatherDisplay:10.37,2013-08-04 12:34:00,
2013-08-04 06:39:00,59.4,55.5,30.01,SSW,202,7.2,8.1,87,0.00,CLR,,0.02,WeatherDisplay:10.37,2013-08-04 12:39:00,
2013-08-04 06:44:00,59.5,55.3,30.01,SSE,158,10.9,10.9,86,0.00,CLR,,0.02,WeatherDisplay:10.37,2013-08-04 12:44:00,
2013-08-04 06:49:00,59.5,55.3,30.01,SSE,158,10.9,10.9,86,0.00,CLR,,0.02,WeatherDisplay:10.37,2013-08-04 12:49:00,
2013-08-04 06:54:00,59.5,55.3,30.01,SSE,158,8.3,8.3,86,0.00,CLR,,0.02,WeatherDisplay:10.37,2013-08-04 12:54:00,
2013-08-04 06:59:00,59.5,55.3,30.01,SSE,158,6.3,10.4,86,0.00,CLR,,0.02,WeatherDisplay:10.37,2013-08-04 12:59:00,
2013-08-04 07:04:00,59.7,55.5,30.02,SSE,158,7.1,9.2,86,0.00,OVC,,0.02,WeatherDisplay:10.37,2013-08-04 13:04:00,
2013-08-04 07:09:00,59.7,55.5,30.02,South,180,7.1,10.4,86,0.00,OVC,,0.02,WeatherDisplay:10.37,2013-08-04 13:09:00,
2013-08-04 07:14:00,59.9,56.0,30.01,South,180,7.1,9.2,87,0.00,OVC,,0.02,WeatherDisplay:10.37,2013-08-04 13:14:00,
2013-08-04 07:19:00,60.1,56.2,30.01,SSE,158,9.7,11.5,87,0.00,OVC,,0.02,WeatherDisplay:10.37,2013-08-04 13:19:00,
2013-08-04 07:24:00,60.3,56.4,30.01,SSW,202,8.4,9.9,87,0.00,OVC,,0.02,WeatherDisplay:10.37,2013-08-04 13:24:00,
2013-08-04 07:29:00,60.4,56.5,30.01,SSE,158,11.9,15.0,87,0.00,OVC,,0.02,WeatherDisplay:10.37,2013-08-04 13:29:00,
2013-08-04 07:34:00,60.6,56.7,30.01,SSE,158,7.4,7.4,87,0.00,OVC,,0.02,WeatherDisplay:10.37,2013-08-04 13:34:00,
2013-08-04 07:39:00,60.8,56.9,30.01,SE,135,11.5,13.8,87,0.00,OVC,,0.02,WeatherDisplay:10.37,2013-08-04 13:39:00,
2013-08-04 07:44:00,60.8,56.9,30.01,SE,135,16.0,16.1,87,0.00,OVC,,0.02,WeatherDisplay:10.37,2013-08-04 13:44:00,
2013-08-04 07:49:00,61.0,56.8,30.01,South,180,9.0,9.0,86,0.00,OVC,,0.02,WeatherDisplay:10.37,2013-08-04 13:49:00,
2013-08-04 07:54:00,61.2,57.0,30.02,South,180,6.3,6.9,86,0.00,OVC,,0.02,WeatherDisplay:10.37,2013-08-04 13:54:00,
2013-08-04 07:59:00,61.3,57.1,30.02,SSE,158,7.9,11.5,86,0.00,OVC,,0.02,WeatherDisplay:10.37,2013-08-04 13:59:00,
2013-08-04 08:04:00,61.5,56.9,30.02,SSE,158,11.5,12.7,85,0.00,OVC,,0.02,WeatherDisplay:10.37,2013-08-04 14:04:00,
2013-08-04 08:09:00,61.5,56.9,30.02,SE,135,8.2,10.4,85,0.00,OVC,,0.02,WeatherDisplay:10.37,2013-08-04 14:09:00,
2013-08-04 08:14:00,61.9,57.3,30.02,SE,135,10.5,12.4,85,0.00,OVC,,0.02,WeatherDisplay:10.37,2013-08-04 14:14:00,
2013-08-04 08:19:00,61.9,57.3,30.02,SSE,158,7.9,9.2,85,0.00,OVC,,0.02,WeatherDisplay:10.37,2013-08-04 14:19:00,
2013-08-04 08:24:00,61.9,57.3,30.02,SSE,158,11.3,11.5,85,0.00,OVC,,0.02,WeatherDisplay:10.37,2013-08-04 14:24:00,
2013-08-04 08:29:00,61.9,57.3,30.02,South,180,8.3,10.4,85,0.00,OVC,,0.02,WeatherDisplay:10.37,2013-08-04 14:29:00,
2013-08-04 08:34:00,62.1,57.5,30.02,SSW,202,7.8,10.4,85,0.00,OVC,,0.02,WeatherDisplay:10.37,2013-08-04 14:34:00,
2013-08-04 08:39:00,62.2,57.6,30.02,SSE,158,8.6,9.2,85,0.00,OVC,,0.02,WeatherDisplay:10.37,2013-08-04 14:39:00,
2013-08-04 08:44:00,62.4,57.8,30.02,SSW,202,6.6,7.8,85,0.00,OVC,,0.02,WeatherDisplay:10.37,2013-08-04 14:44:00,
2013-08-04 08:49:00,63.0,58.4,30.02,South,180,7.9,9.2,85,0.00,OVC,,0.02,WeatherDisplay:10.37,2013-08-04 14:49:00,
2013-08-04 08:54:00,63.3,58.4,30.02,SSW,202,8.9,10.4,84,0.00,OVC,,0.02,WeatherDisplay:10.37,2013-08-04 14:54:00,
2013-08-04 08:59:00,63.5,58.6,30.02,SSW,202,8.2,9.2,84,0.00,OVC,,0.02,WeatherDisplay:10.37,2013-08-04 14:59:00,
2013-08-04 09:04:00,63.5,58.6,30.02,South,180,6.5,8.1,84,0.00,OVC,,0.02,WeatherDisplay:10.37,2013-08-04 15:04:00,
2013-08-04 09:09:00,63.7,58.8,30.02,SSW,202,4.3,5.8,84,0.00,OVC,,0.02,WeatherDisplay:10.37,2013-08-04 15:09:00,
2013-08-04 09:14:00,63.9,58.6,30.02,SW,225,6.9,9.2,83,0.00,OVC,,0.02,WeatherDisplay:10.37,2013-08-04 15:14:00,
2013-08-04 09:19:00,63.7,58.4,30.02,SW,225,7.9,9.2,83,0.00,OVC,,0.02,WeatherDisplay:10.37,2013-08-04 15:19:00,
2013-08-04 09:24:00,63.9,58.6,30.02,SSW,202,6.5,6.9,83,0.00,OVC,,0.02,WeatherDisplay:10.37,2013-08-04 15:24:00,
2013-08-04 09:29:00,64.0,58.7,30.02,SW,225,5.1,5.8,83,0.00,OVC,,0.02,WeatherDisplay:10.37,2013-08-04 15:29:00,
2013-08-04 09:34:00,64.2,58.9,30.02,SW,225,6.5,7.3,83,0.00,OVC,,0.02,WeatherDisplay:10.37,2013-08-04 15:34:00,
2013-08-04 09:39:00,64.4,59.1,30.02,SW,225,5.3,5.8,83,0.00,OVC,,0.02,WeatherDisplay:10.37,2013-08-04 15:39:00,
2013-08-04 09:44:00,64.2,58.9,30.02,WSW,248,8.6,9.4,83,0.00,OVC,,0.02,WeatherDisplay:10.37,2013-08-04 15:44:00,
2013-08-04 09:49:00,64.0,58.7,30.02,SW,225,6.6,8.1,83,0.00,OVC,,0.02,WeatherDisplay:10.37,2013-08-04 15:49:00,
2013-08-04 09:54:00,64.0,58.7,30.02,SSW,202,5.1,5.3,83,0.00,OVC,,0.02,WeatherDisplay:10.37,2013-08-04 15:54:00,
2013-08-04 09:59:00,63.9,59.0,30.02,WSW,248,6.6,9.9,84,0.00,OVC,,0.02,WeatherDisplay:10.37,2013-08-04 15:59:00,
2013-08-04 10:05:00,63.9,59.0,30.02,SW,225,7.5,8.3,84,0.00,CLR,,0.02,WeatherDisplay:10.37,2013-08-04 16:05:00,
2013-08-04 10:10:00,64.2,59.3,30.02,South,180,7.3,7.3,84,0.00,CLR,,0.02,WeatherDisplay:10.37,2013-08-04 16:10:00,
2013-08-04 10:15:00,64.6,59.3,30.02,SW,225,5.6,6.9,83,0.00,CLR,,0.02,WeatherDisplay:10.37,2013-08-04 16:15:00,
2013-08-04 10:19:00,64.6,59.3,30.02,SW,225,8.8,9.2,83,0.00,CLR,,0.02,WeatherDisplay:10.37,2013-08-04 16:19:00,
2013-08-04 10:25:00,64.8,59.5,30.02,WSW,248,7.2,9.2,83,0.00,CLR,,0.02,WeatherDisplay:10.37,2013-08-04 16:25:00,
2013-08-04 10:30:00,64.9,59.6,30.01,SW,225,5.3,8.1,83,0.00,CLR,,0.02,WeatherDisplay:10.37,2013-08-04 16:30:00,
2013-08-04 10:35:00,65.1,59.8,30.01,SW,225,4.4,5.8,83,0.00,CLR,,0.02,WeatherDisplay:10.37,2013-08-04 16:35:00,
2013-08-04 10:40:00,65.1,59.8,30.01,South,180,3.4,5.8,83,0.00,CLR,,0.02,WeatherDisplay:10.37,2013-08-04 16:40:00,
2013-08-04 10:45:00,65.3,60.0,30.01,SW,225,3.5,5.8,83,0.00,CLR,,0.02,WeatherDisplay:10.37,2013-08-04 16:45:00,
2013-08-04 10:49:00,65.1,59.8,30.01,SW,225,4.7,5.8,83,0.00,CLR,,0.02,WeatherDisplay:10.37,2013-08-04 16:49:00,
2013-08-04 10:55:00,65.1,59.8,30.01,SW,225,4.8,6.9,83,0.00,CLR,,0.02,WeatherDisplay:10.37,2013-08-04 16:55:00,
2013-08-04 11:00:00,65.1,59.8,30.01,SW,225,4.4,5.8,83,0.00,CLR,,0.02,WeatherDisplay:10.37,2013-08-04 17:00:00,
2013-08-04 11:05:00,65.3,60.0,30.01,SW,225,4.3,6.3,83,0.00,CLR,,0.02,WeatherDisplay:10.37,2013-08-04 17:05:00,
2013-08-04 11:10:00,65.5,60.2,30.01,WSW,248,5.7,5.8,83,0.00,CLR,,0.02,WeatherDisplay:10.37,2013-08-04 17:10:00,
2013-08-04 11:15:00,65.7,60.1,30.01,WSW,248,3.8,4.6,82,0.00,CLR,,0.02,WeatherDisplay:10.37,2013-08-04 17:15:00,
2013-08-04 11:19:00,65.8,60.2,30.01,SW,225,3.8,5.8,82,0.00,CLR,,0.02,WeatherDisplay:10.37,2013-08-04 17:19:00,
2013-08-04 11:25:00,66.4,60.7,30.01,SSW,202,3.6,4.6,82,0.00,CLR,,0.02,WeatherDisplay:10.37,2013-08-04 17:25:00,
2013-08-04 11:30:00,66.6,60.9,30.00,WSW,248,4.6,5.8,82,0.00,CLR,,0.02,WeatherDisplay:10.37,2013-08-04 17:30:00,
2013-08-04 11:35:00,66.6,60.6,30.00,South,180,4.0,5.8,81,0.00,CLR,,0.02,WeatherDisplay:10.37,2013-08-04 17:35:00,
2013-08-04 11:40:00,67.1,61.1,30.00,SSW,202,3.8,4.6,81,0.00,CLR,,0.02,WeatherDisplay:10.37,2013-08-04 17:40:00,
2013-08-04 11:45:00,67.3,61.3,30.00,WSW,248,4.3,5.8,81,0.00,OVC,,0.02,WeatherDisplay:10.37,2013-08-04 17:45:00,
2013-08-04 11:50:00,67.1,61.1,30.00,SW,225,4.6,5.8,81,0.00,OVC,,0.02,WeatherDisplay:10.37,2013-08-04 17:50:00,
2013-08-04 11:55:00,67.5,61.5,30.00,NNW,338,3.0,3.5,81,0.00,OVC,,0.02,WeatherDisplay:10.37,2013-08-04 17:55:00,
2013-08-04 12:00:00,68.5,61.7,30.00,WSW,248,3.6,3.6,79,0.00,OVC,,0.02,WeatherDisplay:10.37,2013-08-04 18:00:00,
2013-08-04 12:05:00,69.3,62.1,30.00,SW,225,4.7,4.7,78,0.00,OVC,,0.02,WeatherDisplay:10.37,2013-08-04 18:05:00,
2013-08-04 12:10:00,69.1,61.9,30.00,West,270,3.9,4.6,78,0.00,OVC,,0.02,WeatherDisplay:10.37,2013-08-04 18:10:00,
2013-08-04 12:15:00,69.3,62.1,29.99,North,360,2.5,4.7,78,0.00,OVC,,0.02,WeatherDisplay:10.37,2013-08-04 18:15:00,
2013-08-04 12:20:00,68.9,62.5,29.99,WSW,248,2.6,4.7,80,0.00,OVC,,0.02,WeatherDisplay:10.37,2013-08-04 18:20:00,
2013-08-04 12:25:00,69.3,62.1,29.99,WSW,248,2.4,3.5,78,0.00,OVC,,0.02,WeatherDisplay:10.37,2013-08-04 18:25:00,
2013-08-04 12:30:00,69.3,62.1,30.00,WSW,248,2.4,4.6,78,0.00,OVC,,0.02,WeatherDisplay:10.37,2013-08-04 18:30:00,
2013-08-04 12:35:00,68.9,62.1,30.00,SW,225,5.4,6.9,79,0.00,OVC,,0.02,WeatherDisplay:10.37,2013-08-04 18:35:00,
2013-08-04 12:40:00,68.9,62.1,29.99,SW,225,5.3,5.8,79,0.00,OVC,,0.02,WeatherDisplay:10.37,2013-08-04 18:40:00,
2013-08-04 12:45:00,69.1,62.3,29.99,SW,225,5.7,6.9,79,0.00,OVC,,0.02,WeatherDisplay:10.37,2013-08-04 18:45:00,
2013-08-04 12:50:00,70.3,62.4,29.98,SSW,202,5.6,7.3,76,0.00,OVC,,0.02,WeatherDisplay:10.37,2013-08-04 18:50:00,
2013-08-04 12:55:00,71.1,63.1,29.98,SSE,158,3.7,3.7,76,0.00,OVC,,0.02,WeatherDisplay:10.37,2013-08-04 18:55:00,
2013-08-04 13:00:00,72.0,63.6,29.98,SW,225,4.1,6.3,75,0.00,OVC,,0.02,WeatherDisplay:10.37,2013-08-04 19:00:00,
2013-08-04 13:05:00,72.0,63.6,29.98,South,180,5.0,5.8,75,0.00,OVC,,0.02,WeatherDisplay:10.37,2013-08-04 19:05:00,
2013-08-04 13:10:00,71.4,63.1,29.98,SW,225,3.8,5.8,75,0.00,OVC,,0.02,WeatherDisplay:10.37,2013-08-04 19:10:00,
2013-08-04 13:15:00,71.6,63.6,29.98,SSW,202,5.2,5.8,76,0.00,OVC,,0.02,WeatherDisplay:10.37,2013-08-04 19:15:00,
2013-08-04 13:20:00,72.7,63.5,29.98,WSW,248,3.0,4.6,73,0.00,OVC,,0.02,WeatherDisplay:10.37,2013-08-04 19:20:00,
2013-08-04 13:25:00,73.4,64.6,29.98,SW,225,3.0,3.5,74,0.00,OVC,,0.02,WeatherDisplay:10.37,2013-08-04 19:25:00,
2013-08-04 13:30:00,73.6,64.0,29.97,ESE,112,3.5,5.8,72,0.00,OVC,,0.02,WeatherDisplay:10.37,2013-08-04 19:30:00,
2013-08-04 13:35:00,74.3,64.7,29.97,WSW,248,5.2,6.9,72,0.00,OVC,,0.02,WeatherDisplay:10.37,2013-08-04 19:35:00,
2013-08-04 13:40:00,75.4,64.5,29.97,East,90,2.0,2.3,69,0.00,OVC,,0.02,WeatherDisplay:10.37,2013-08-04 19:40:00,
2013-08-04 13:41:00,75.9,65.0,29.97,WSW,248,1.7,2.3,69,0.00,BKN,,0.02,WeatherDisplay:10.37,2013-08-04 19:41:00,
2013-08-04 13:46:00,75.7,64.8,29.97,SW,225,4.5,5.8,69,0.00,BKN,,0.02,WeatherDisplay:10.37,2013-08-04 19:46:00,
2013-08-04 13:51:00,74.8,63.9,29.97,WSW,248,5.8,8.1,69,0.00,BKN,,0.02,WeatherDisplay:10.37,2013-08-04 19:51:00,
2013-08-04 13:56:00,74.8,63.9,29.97,WSW,248,6.0,8.1,69,0.00,BKN,,0.02,WeatherDisplay:10.37,2013-08-04 19:56:00,
2013-08-04 14:00:00,76.6,64.8,29.97,South,180,3.5,5.8,67,0.00,BKN,,0.02,WeatherDisplay:10.37,2013-08-04 20:00:00,
2013-08-04 14:06:00,76.1,65.2,29.97,SSE,158,3.3,5.8,69,0.00,BKN,,0.02,WeatherDisplay:10.37,2013-08-04 20:06:00,
2013-08-04 14:11:00,76.6,64.8,29.97,SSW,202,3.6,5.8,67,0.00,BKN,,0.02,WeatherDisplay:10.37,2013-08-04 20:11:00,
2013-08-04 14:16:00,75.6,64.7,29.97,West,270,2.7,4.2,69,0.00,BKN,,0.02,WeatherDisplay:10.37,2013-08-04 20:16:00,
2013-08-04 14:21:00,75.7,64.4,29.97,WSW,248,1.9,2.7,68,0.00,BKN,,0.02,WeatherDisplay:10.37,2013-08-04 20:21:00,
2013-08-04 14:26:00,75.7,64.8,29.97,WSW,248,5.6,6.9,69,0.00,BKN,,0.02,WeatherDisplay:10.37,2013-08-04 20:26:00,
2013-08-04 14:31:00,75.6,64.7,29.96,SW,225,3.7,4.6,69,0.00,BKN,,0.02,WeatherDisplay:10.37,2013-08-04 20:31:00,
2013-08-04 14:36:00,76.5,65.1,29.96,WSW,248,4.0,5.3,68,0.00,BKN,,0.02,WeatherDisplay:10.37,2013-08-04 20:36:00,
2013-08-04 14:41:00,76.3,65.0,29.96,SW,225,2.5,3.7,68,0.00,BKN,,0.02,WeatherDisplay:10.37,2013-08-04 20:41:00,
2013-08-04 14:46:00,77.0,64.8,29.96,South,180,1.0,1.1,66,0.00,BKN,,0.02,WeatherDisplay:10.37,2013-08-04 20:46:00,
2013-08-04 14:51:00,76.3,64.1,29.96,NE,45,1.1,2.3,66,0.00,BKN,,0.02,WeatherDisplay:10.37,2013-08-04 20:51:00,
2013-08-04 14:56:00,78.1,64.9,29.96,NW,315,2.8,3.5,64,0.00,BKN,,0.02,WeatherDisplay:10.37,2013-08-04 20:56:00,
2013-08-04 15:01:00,77.5,64.8,29.96,ENE,68,1.6,3.5,65,0.00,OVC,,0.02,WeatherDisplay:10.37,2013-08-04 21:01:00,
2013-08-04 15:06:00,77.9,64.7,29.95,SW,225,2.6,4.7,64,0.00,OVC,,0.02,WeatherDisplay:10.37,2013-08-04 21:06:00,
2013-08-04 15:11:00,77.7,64.5,29.95,South,180,2.0,3.5,64,0.00,OVC,,0.02,WeatherDisplay:10.37,2013-08-04 21:11:00,
2013-08-04 15:16:00,77.7,64.5,29.95,NNW,338,3.5,3.5,64,0.00,OVC,,0.02,WeatherDisplay:10.37,2013-08-04 21:16:00,
2013-08-04 15:21:00,78.4,64.3,29.95,NNW,338,3.4,4.6,62,0.00,OVC,,0.02,WeatherDisplay:10.37,2013-08-04 21:21:00,
2013-08-04 15:26:00,77.9,63.8,29.94,WSW,248,2.5,2.7,62,0.00,OVC,,0.02,WeatherDisplay:10.37,2013-08-04 21:26:00,
2013-08-04 15:31:00,79.2,64.6,29.94,SSW,202,0.6,4.2,61,0.00,OVC,,0.02,WeatherDisplay:10.37,2013-08-04 21:31:00,
2013-08-04 15:36:00,78.6,64.5,29.94,WSW,248,2.7,4.6,62,0.00,OVC,,0.02,WeatherDisplay:10.37,2013-08-04 21:36:00,
2013-08-04 15:41:00,80.1,65.0,29.94,WSW,248,0.9,1.1,60,0.00,OVC,,0.02,WeatherDisplay:10.37,2013-08-04 21:41:00,
2013-08-04 15:46:00,79.5,64.4,29.94,SW,225,2.2,2.3,60,0.00,OVC,,0.02,WeatherDisplay:10.37,2013-08-04 21:46:00,
2013-08-04 15:49:00,79.7,64.6,29.94,NE,45,0.9,2.3,60,0.00,OVC,,0.02,WeatherDisplay:10.37,2013-08-04 21:49:00,
2013-08-04 15:54:00,78.6,63.6,29.93,SW,225,3.7,3.7,60,0.00,OVC,,0.02,WeatherDisplay:10.37,2013-08-04 21:54:00,
2013-08-04 15:59:00,78.3,63.7,29.93,WSW,248,1.6,2.7,61,0.00,OVC,,0.02,WeatherDisplay:10.37,2013-08-04 21:59:00,
2013-08-04 16:04:00,78.3,64.2,29.93,West,270,3.3,5.3,62,0.00,OVC,,0.02,WeatherDisplay:10.37,2013-08-04 22:04:00,
2013-08-04 16:09:00,78.3,63.7,29.93,ESE,112,1.3,2.3,61,0.00,OVC,,0.02,WeatherDisplay:10.37,2013-08-04 22:09:00,
2013-08-04 16:14:00,78.3,63.7,29.92,South,180,0.3,1.1,61,0.00,OVC,,0.02,WeatherDisplay:10.37,2013-08-04 22:14:00,
2013-08-04 16:19:00,77.7,62.7,29.92,WSW,248,3.1,3.5,60,0.00,OVC,,0.02,WeatherDisplay:10.37,2013-08-04 22:19:00,
2013-08-04 16:24:00,76.8,63.2,29.92,SSW,202,3.4,4.6,63,0.00,OVC,,0.02,WeatherDisplay:10.37,2013-08-04 22:24:00,
2013-08-04 16:29:00,76.6,64.0,29.92,NNW,338,1.6,2.3,65,0.00,OVC,,0.02,WeatherDisplay:10.37,2013-08-04 22:29:00,
2013-08-04 16:34:00,76.5,63.9,29.92,South,180,2.0,2.3,65,0.00,OVC,,0.02,WeatherDisplay:10.37,2013-08-04 22:34:00,
2013-08-04 16:39:00,76.1,63.0,29.93,SW,225,3.6,4.6,64,0.00,OVC,,0.02,WeatherDisplay:10.37,2013-08-04 22:39:00,
2013-08-04 16:44:00,76.1,63.5,29.93,SW,225,5.0,5.8,65,0.00,OVC,,0.02,WeatherDisplay:10.37,2013-08-04 22:44:00,
2013-08-04 16:49:00,75.6,64.7,29.93,West,270,2.0,3.5,69,0.00,OVC,,0.02,WeatherDisplay:10.37,2013-08-04 22:49:00,
2013-08-04 16:54:00,75.0,65.0,29.93,SW,225,3.0,4.6,71,0.00,OVC,,0.02,WeatherDisplay:10.37,2013-08-04 22:54:00,
2013-08-04 16:59:00,74.8,65.2,29.93,SSW,202,2.2,3.5,72,0.00,OVC,,0.02,WeatherDisplay:10.37,2013-08-04 22:59:00,
2013-08-04 17:04:00,74.8,65.6,29.93,WNW,292,1.7,2.3,73,0.00,BKN,,0.02,WeatherDisplay:10.37,2013-08-04 23:04:00,
2013-08-04 17:09:00,75.2,65.9,29.93,WSW,248,0.9,1.7,73,0.00,BKN,,0.02,WeatherDisplay:10.37,2013-08-04 23:09:00,
2013-08-04 17:14:00,74.3,64.3,29.93,WSW,248,2.6,2.7,71,0.00,BKN,,0.02,WeatherDisplay:10.37,2013-08-04 23:14:00,
2013-08-04 17:19:00,73.9,64.7,29.93,SSE,158,1.9,3.2,73,0.00,BKN,,0.02,WeatherDisplay:10.37,2013-08-04 23:19:00,
2013-08-04 17:24:00,72.9,64.5,29.93,South,180,3.0,4.6,75,0.00,BKN,,0.02,WeatherDisplay:10.37,2013-08-04 23:24:00,
2013-08-04 17:29:00,73.0,65.4,29.93,South,180,3.1,3.5,77,0.00,BKN,,0.02,WeatherDisplay:10.37,2013-08-04 23:29:00,
2013-08-04 17:34:00,73.0,65.0,29.93,SSE,158,4.7,5.8,76,0.00,BKN,,0.02,WeatherDisplay:10.37,2013-08-04 23:34:00,
2013-08-04 17:39:00,72.7,65.1,29.93,South,180,2.5,3.5,77,0.00,BKN,,0.02,WeatherDisplay:10.37,2013-08-04 23:39:00,
2013-08-04 17:44:00,72.5,65.6,29.93,SSE,158,3.7,3.7,79,0.00,OVC,,0.02,WeatherDisplay:10.37,2013-08-04 23:44:00,
2013-08-04 17:49:00,72.5,65.6,29.93,SSE,158,3.7,3.7,79,0.00,OVC,,0.02,WeatherDisplay:10.37,2013-08-04 23:49:00,
2013-08-04 17:54:00,73.2,64.8,29.93,SSE,158,3.3,3.5,75,0.00,OVC,,0.02,WeatherDisplay:10.37,2013-08-04 23:54:00,
2013-08-04 17:59:00,73.6,65.2,29.93,West,270,0.3,1.1,75,0.00,OVC,,0.02,WeatherDisplay:10.37,2013-08-04 23:59:00,
2013-08-04 18:04:00,74.3,65.1,29.92,South,180,0.2,1.1,73,0.00,-RA,,0.02,WeatherDisplay:10.37,2013-08-05 00:04:00,
2013-08-04 18:09:00,74.3,65.1,29.92,SSE,158,3.3,3.5,73,0.00,-RA,,0.02,WeatherDisplay:10.37,2013-08-05 00:09:00,
2013-08-04 18:14:00,74.3,63.9,29.92,North,360,0.7,2.3,70,0.00,-RA,,0.02,WeatherDisplay:10.37,2013-08-05 00:14:00,
2013-08-04 18:19:00,74.5,64.1,29.92,West,270,1.0,2.3,70,0.00,-RA,,0.02,WeatherDisplay:10.37,2013-08-05 00:19:00,
2013-08-04 18:24:00,75.0,63.7,29.92,ENE,68,0.3,1.1,68,0.00,BKN,,0.02,WeatherDisplay:10.37,2013-08-05 00:24:00,
2013-08-04 18:29:00,75.2,63.5,29.92,WSW,248,2.8,3.5,67,0.00,BKN,,0.02,WeatherDisplay:10.37,2013-08-05 00:29:00,
2013-08-04 18:34:00,75.4,62.4,29.92,NW,315,2.6,2.6,64,0.00,BKN,,0.02,WeatherDisplay:10.37,2013-08-05 00:34:00,
2013-08-04 18:39:00,75.9,62.8,29.92,NNE,22,0.8,3.5,64,0.00,BKN,,0.02,WeatherDisplay:10.37,2013-08-05 00:39:00,
2013-08-04 18:44:00,75.9,62.8,29.92,West,270,0.5,3.5,64,0.00,BKN,,0.02,WeatherDisplay:10.37,2013-08-05 00:44:00,
2013-08-04 18:49:00,75.7,62.2,29.92,North,360,1.9,1.9,63,0.00,BKN,,0.02,WeatherDisplay:10.37,2013-08-05 00:49:00,
2013-08-04 18:54:00,75.7,62.7,29.91,SW,225,0.2,1.1,64,0.00,BKN,,0.02,WeatherDisplay:10.37,2013-08-05 00:54:00,
2013-08-04 18:59:00,75.7,62.7,29.91,NE,45,0.3,0.0,64,0.00,BKN,,0.02,WeatherDisplay:10.37,2013-08-05 00:59:00,
2013-08-04 19:04:00,75.7,62.7,29.91,SW,225,0.6,2.2,64,0.00,BKN,,0.02,WeatherDisplay:10.37,2013-08-05 01:04:00,
2013-08-04 19:10:00,75.6,62.6,29.91,SSE,158,0.0,0.0,64,0.00,BKN,,0.02,WeatherDisplay:10.37,2013-08-05 01:10:00,
2013-08-04 19:14:00,75.4,62.8,29.91,SW,225,0.0,0.0,65,0.00,BKN,,0.02,WeatherDisplay:10.37,2013-08-05 01:14:00,
2013-08-04 19:20:00,75.4,63.2,29.91,East,90,0.0,0.0,66,0.00,BKN,,0.02,WeatherDisplay:10.37,2013-08-05 01:20:00,
2013-08-04 19:25:00,75.2,62.6,29.91,WSW,248,1.3,2.3,65,0.00,BKN,,0.02,WeatherDisplay:10.37,2013-08-05 01:25:00,
2013-08-04 19:30:00,75.2,62.2,29.92,NNW,338,0.0,2.3,64,0.00,BKN,,0.02,WeatherDisplay:10.37,2013-08-05 01:30:00,
2013-08-04 19:35:00,75.2,62.6,29.92,NNE,22,1.7,3.5,65,0.00,BKN,,0.02,WeatherDisplay:10.37,2013-08-05 01:35:00,
2013-08-04 19:40:00,75.0,62.0,29.93,NW,315,2.0,4.6,64,0.00,BKN,,0.02,WeatherDisplay:10.37,2013-08-05 01:40:00,
2013-08-04 19:45:00,74.8,62.2,29.93,NNW,338,5.8,8.1,65,0.00,BKN,,0.02,WeatherDisplay:10.37,2013-08-05 01:45:00,
2013-08-04 19:49:00,74.5,62.0,29.93,NE,45,3.3,4.6,65,0.00,BKN,,0.02,WeatherDisplay:10.37,2013-08-05 01:49:00,
2013-08-04 19:55:00,74.3,62.2,29.93,NW,315,3.7,3.7,66,0.00,BKN,,0.02,WeatherDisplay:10.37,2013-08-05 01:55:00,
2013-08-04 20:00:00,73.9,61.8,29.93,NNW,338,1.6,2.3,66,0.00,BKN,,0.02,WeatherDisplay:10.37,2013-08-05 02:00:00,
2013-08-04 20:05:00,73.6,62.0,29.94,WNW,292,3.7,4.7,67,0.00,OVC,,0.02,WeatherDisplay:10.37,2013-08-05 02:05:00,
2013-08-04 20:10:00,73.2,61.6,29.94,North,360,1.0,1.1,67,0.00,OVC,,0.02,WeatherDisplay:10.37,2013-08-05 02:10:00,
2013-08-04 20:14:00,72.9,62.1,29.94,NNE,22,4.3,5.8,69,0.00,OVC,,0.02,WeatherDisplay:10.37,2013-08-05 02:14:00,
2013-08-04 20:20:00,72.3,62.0,29.94,ENE,68,1.9,2.7,70,0.00,OVC,,0.02,WeatherDisplay:10.37,2013-08-05 02:20:00,
2013-08-04 20:25:00,71.8,61.9,29.94,East,90,2.7,3.5,71,0.00,OVC,,0.02,WeatherDisplay:10.37,2013-08-05 02:25:00,
2013-08-04 20:30:00,71.4,62.3,29.94,SSW,202,1.0,2.7,73,0.00,OVC,,0.02,WeatherDisplay:10.37,2013-08-05 02:30:00,
2013-08-04 20:35:00,70.9,61.8,29.94,NE,45,2.9,4.6,73,0.00,OVC,,0.02,WeatherDisplay:10.37,2013-08-05 02:35:00,
2013-08-04 20:40:00,70.9,61.8,29.95,NE,45,2.7,2.7,73,0.00,OVC,,0.02,WeatherDisplay:10.37,2013-08-05 02:40:00,
2013-08-04 20:45:00,70.2,61.5,29.95,NNW,338,3.2,4.6,74,0.00,OVC,,0.02,WeatherDisplay:10.37,2013-08-05 02:45:00,
2013-08-04 20:50:00,69.8,61.1,29.96,ENE,68,4.1,5.8,74,0.00,OVC,,0.02,WeatherDisplay:10.37,2013-08-05 02:50:00,
2013-08-04 20:54:00,69.4,60.8,29.96,East,90,2.7,6.9,74,0.00,OVC,,0.02,WeatherDisplay:10.37,2013-08-05 02:54:00,
2013-08-04 20:59:00,69.1,60.8,29.96,NNE,22,4.4,5.8,75,0.00,OVC,,0.02,WeatherDisplay:10.37,2013-08-05 02:59:00,
2013-08-04 21:04:00,69.1,60.8,29.96,NNE,22,5.8,5.8,75,0.00,CLR,,0.02,WeatherDisplay:10.37,2013-08-05 03:04:00,
2013-08-04 21:10:00,68.0,60.5,29.96,NE,45,2.7,3.5,77,0.00,CLR,,0.02,WeatherDisplay:10.37,2013-08-05 03:10:00,
2013-08-04 21:15:00,67.8,60.3,29.96,ENE,68,3.6,5.8,77,0.00,CLR,,0.02,WeatherDisplay:10.37,2013-08-05 03:15:00,
2013-08-04 21:20:00,67.5,60.4,29.96,ENE,68,3.5,5.8,78,0.00,CLR,,0.02,WeatherDisplay:10.37,2013-08-05 03:20:00,
2013-08-04 21:25:00,67.3,60.6,29.96,East,90,3.1,3.5,79,0.00,CLR,,0.02,WeatherDisplay:10.37,2013-08-05 03:25:00,
2013-08-04 21:30:00,66.9,60.2,29.96,West,270,1.9,3.5,79,0.00,CLR,,0.02,WeatherDisplay:10.37,2013-08-05 03:30:00,
2013-08-04 21:35:00,66.7,60.3,29.96,ENE,68,1.8,2.3,80,0.00,CLR,,0.02,WeatherDisplay:10.37,2013-08-05 03:35:00,
2013-08-04 21:40:00,66.4,60.0,29.96,ESE,112,0.2,2.3,80,0.00,CLR,,0.02,WeatherDisplay:10.37,2013-08-05 03:40:00,
2013-08-04 21:45:00,66.2,60.2,29.96,East,90,0.2,1.1,81,0.00,CLR,,0.02,WeatherDisplay:10.37,2013-08-05 03:45:00,
2013-08-04 21:50:00,65.8,59.8,29.96,South,180,0.0,0.0,81,0.00,CLR,,0.02,WeatherDisplay:10.37,2013-08-05 03:50:00,
2013-08-04 21:55:00,65.7,59.7,29.96,SSE,158,0.0,0.0,81,0.00,CLR,,0.02,WeatherDisplay:10.37,2013-08-05 03:55:00,
2013-08-04 22:00:00,65.3,59.7,29.96,ESE,112,0.0,0.0,82,0.00,CLR,,0.02,WeatherDisplay:10.37,2013-08-05 04:00:00,
2013-08-04 22:01:00,65.1,59.5,29.96,ESE,112,0.0,0.0,82,0.00,CLR,,0.02,WeatherDisplay:10.37,2013-08-05 04:01:00,
2013-08-04 22:06:00,64.9,59.6,29.97,East,90,0.0,0.0,83,0.00,CLR,,0.02,WeatherDisplay:10.37,2013-08-05 04:06:00,
2013-08-04 22:11:00,64.6,60.0,29.97,SE,135,0.3,1.1,85,0.00,CLR,,0.02,WeatherDisplay:10.37,2013-08-05 04:11:00,
2013-08-04 22:16:00,64.4,59.8,29.96,SSE,158,0.0,0.0,85,0.00,CLR,,0.02,WeatherDisplay:10.37,2013-08-05 04:16:00,
2013-08-04 22:21:00,64.0,59.4,29.96,South,180,0.0,0.0,85,0.00,CLR,,0.02,WeatherDisplay:10.37,2013-08-05 04:21:00,
2013-08-04 22:26:00,63.7,59.1,29.96,SSE,158,0.0,0.0,85,0.00,CLR,,0.02,WeatherDisplay:10.37,2013-08-05 04:26:00,
2013-08-04 22:31:00,63.5,59.2,29.96,South,180,2.2,2.3,86,0.00,CLR,,0.02,WeatherDisplay:10.37,2013-08-05 04:31:00,
2013-08-04 22:36:00,63.1,59.2,29.96,SSE,158,2.7,3.2,87,0.00,CLR,,0.02,WeatherDisplay:10.37,2013-08-05 04:36:00,
2013-08-04 22:41:00,62.8,58.9,29.96,South,180,2.2,2.3,87,0.00,CLR,,0.02,WeatherDisplay:10.37,2013-08-05 04:41:00,
2013-08-04 22:46:00,62.4,58.8,29.96,SSE,158,3.1,3.7,88,0.00,CLR,,0.02,WeatherDisplay:10.37,2013-08-05 04:46:00,
2013-08-04 22:51:00,62.1,58.5,29.95,WSW,248,1.9,2.2,88,0.00,CLR,,0.02,WeatherDisplay:10.37,2013-08-05 04:51:00,
2013-08-04 22:57:00,61.9,58.3,29.95,SW,225,0.0,1.1,88,0.00,CLR,,0.02,WeatherDisplay:10.37,2013-08-05 04:57:00,
2013-08-04 23:01:00,61.7,58.4,29.95,SW,225,0.0,0.0,89,0.00,CLR,,0.02,WeatherDisplay:10.37,2013-08-05 05:01:00,
2013-08-04 23:06:00,61.3,58.0,29.95,West,270,0.0,0.0,89,0.00,CLR,,0.02,WeatherDisplay:10.37,2013-08-05 05:06:00,
2013-08-04 23:12:00,61.3,58.0,29.95,WNW,292,0.0,0.0,89,0.00,CLR,,0.02,WeatherDisplay:10.37,2013-08-05 05:12:00,
2013-08-04 23:16:00,61.0,57.7,29.95,SW,225,0.0,0.0,89,0.00,CLR,,0.02,WeatherDisplay:10.37,2013-08-05 05:16:00,
2013-08-04 23:22:00,61.0,58.4,29.95,SSW,202,0.0,0.0,91,0.00,CLR,,0.02,WeatherDisplay:10.37,2013-08-05 05:22:00,
2013-08-04 23:27:00,60.8,58.2,29.95,SSW,202,0.0,0.0,91,0.00,CLR,,0.02,WeatherDisplay:10.37,2013-08-05 05:27:00,
2013-08-04 23:32:00,60.6,58.0,29.95,SSE,158,0.6,1.7,91,0.00,CLR,,0.02,WeatherDisplay:10.37,2013-08-05 05:32:00,
2013-08-04 23:37:00,60.3,58.0,29.95,SSE,158,2.0,2.3,92,0.00,CLR,,0.02,WeatherDisplay:10.37,2013-08-05 05:37:00,
2013-08-04 23:42:00,60.1,57.8,29.95,SE,135,0.0,0.0,92,0.00,CLR,,0.02,WeatherDisplay:10.37,2013-08-05 05:42:00,
2013-08-04 23:47:00,59.9,57.6,29.95,SW,225,0.0,0.0,92,0.00,CLR,,0.02,WeatherDisplay:10.37,2013-08-05 05:47:00,
2013-08-04 23:52:00,59.7,57.1,29.96,NNE,22,0.0,0.0,91,0.00,CLR,,0.02,WeatherDisplay:10.37,2013-08-05 05:52:00,
2013-08-04 23:57:00,59.7,57.4,29.96,WNW,292,0.0,1.1,92,0.00,CLR,,0.02,WeatherDisplay:10.37,2013-08-05 05:57:00,